sensor_id;sensor_type;location;lat;lon;timestamp;temperature;humidity
5675;DHT22;2860;54.284;10.158;2023-01-20T00:02:00;0.80;99.90
5675;DHT22;2860;54.284;10.158;2023-01-20T00:04:26;0.80;99.90
5675;DHT22;2860;54.284;10.158;2023-01-20T00:06:51;0.80;99.90
5675;DHT22;2860;54.284;10.158;2023-01-20T00:09:17;0.80;99.90
5675;DHT22;2860;54.284;10.158;2023-01-20T00:11:43;0.80;99.90
5675;DHT22;2860;54.284;10.158;2023-01-20T00:14:09;0.80;99.90
5675;DHT22;2860;54.284;10.158;2023-01-20T00:16:35;0.80;99.90
5675;DHT22;2860;54.284;10.158;2023-01-20T00:19:01;0.90;99.90
5675;DHT22;2860;54.284;10.158;2023-01-20T00:21:27;0.90;99.90
5675;DHT22;2860;54.284;10.158;2023-01-20T00:23:53;0.90;99.90
5675;DHT22;2860;54.284;10.158;2023-01-20T00:26:21;0.90;99.90
5675;DHT22;2860;54.284;10.158;2023-01-20T00:28:47;0.90;99.90
5675;DHT22;2860;54.284;10.158;2023-01-20T00:31:15;0.90;99.90
5675;DHT22;2860;54.284;10.158;2023-01-20T00:33:42;0.90;99.90
5675;DHT22;2860;54.284;10.158;2023-01-20T00:36:09;0.90;99.90
5675;DHT22;2860;54.284;10.158;2023-01-20T00:38:35;1.00;99.90
5675;DHT22;2860;54.284;10.158;2023-01-20T00:41:00;1.00;99.90
5675;DHT22;2860;54.284;10.158;2023-01-20T00:43:26;1.00;99.90
5675;DHT22;2860;54.284;10.158;2023-01-20T00:45:51;1.00;99.90
5675;DHT22;2860;54.284;10.158;2023-01-20T00:48:17;1.00;99.90
5675;DHT22;2860;54.284;10.158;2023-01-20T00:50:43;1.00;99.90
5675;DHT22;2860;54.284;10.158;2023-01-20T00:53:08;0.90;99.90
5675;DHT22;2860;54.284;10.158;2023-01-20T00:55:34;1.00;99.90
5675;DHT22;2860;54.284;10.158;2023-01-20T00:57:59;1.00;99.90
5675;DHT22;2860;54.284;10.158;2023-01-20T01:00:25;0.90;99.90
5675;DHT22;2860;54.284;10.158;2023-01-20T01:02:50;1.00;99.90
5675;DHT22;2860;54.284;10.158;2023-01-20T01:05:16;1.00;99.90
5675;DHT22;2860;54.284;10.158;2023-01-20T01:07:41;1.00;99.90
5675;DHT22;2860;54.284;10.158;2023-01-20T01:10:08;1.00;99.90
5675;DHT22;2860;54.284;10.158;2023-01-20T01:12:34;1.00;99.90
5675;DHT22;2860;54.284;10.158;2023-01-20T01:14:59;1.00;99.90
5675;DHT22;2860;54.284;10.158;2023-01-20T01:17:25;1.00;99.90
5675;DHT22;2860;54.284;10.158;2023-01-20T01:19:53;1.00;99.90
5675;DHT22;2860;54.284;10.158;2023-01-20T01:22:19;1.00;99.90
5675;DHT22;2860;54.284;10.158;2023-01-20T01:24:45;1.00;99.90
5675;DHT22;2860;54.284;10.158;2023-01-20T01:27:11;1.00;99.90
5675;DHT22;2860;54.284;10.158;2023-01-20T01:29:36;1.00;99.90
5675;DHT22;2860;54.284;10.158;2023-01-20T01:32:03;1.00;99.90
5675;DHT22;2860;54.284;10.158;2023-01-20T01:34:29;1.00;99.90
5675;DHT22;2860;54.284;10.158;2023-01-20T01:36:55;1.00;99.90
5675;DHT22;2860;54.284;10.158;2023-01-20T01:39:20;1.00;99.90
5675;DHT22;2860;54.284;10.158;2023-01-20T01:41:46;1.00;99.90
5675;DHT22;2860;54.284;10.158;2023-01-20T01:44:12;1.00;99.90
5675;DHT22;2860;54.284;10.158;2023-01-20T01:46:39;1.00;99.90
5675;DHT22;2860;54.284;10.158;2023-01-20T01:49:21;1.00;99.90
5675;DHT22;2860;54.284;10.158;2023-01-20T01:51:58;1.00;99.90
5675;DHT22;2860;54.284;10.158;2023-01-20T01:54:26;1.00;99.90
5675;DHT22;2860;54.284;10.158;2023-01-20T01:56:54;1.00;99.90
5675;DHT22;2860;54.284;10.158;2023-01-20T01:59:20;1.00;99.90
5675;DHT22;2860;54.284;10.158;2023-01-20T02:01:49;1.00;99.90
5675;DHT22;2860;54.284;10.158;2023-01-20T02:04:18;1.00;99.90
5675;DHT22;2860;54.284;10.158;2023-01-20T02:06:51;1.00;99.90
5675;DHT22;2860;54.284;10.158;2023-01-20T02:09:19;1.00;99.90
5675;DHT22;2860;54.284;10.158;2023-01-20T02:11:48;1.00;99.90
5675;DHT22;2860;54.284;10.158;2023-01-20T02:14:19;1.00;99.90
5675;DHT22;2860;54.284;10.158;2023-01-20T02:22:35;1.00;99.90
5675;DHT22;2860;54.284;10.158;2023-01-20T02:28:02;1.00;99.90
5675;DHT22;2860;54.284;10.158;2023-01-20T02:33:32;1.00;99.90
5675;DHT22;2860;54.284;10.158;2023-01-20T02:38:35;1.00;99.90
5675;DHT22;2860;54.284;10.158;2023-01-20T02:41:12;0.90;99.90
5675;DHT22;2860;54.284;10.158;2023-01-20T02:43:43;1.00;99.90
5675;DHT22;2860;54.284;10.158;2023-01-20T02:48:55;1.00;99.90
5675;DHT22;2860;54.284;10.158;2023-01-20T02:51:29;0.90;99.90
5675;DHT22;2860;54.284;10.158;2023-01-20T02:54:04;1.00;99.90
5675;DHT22;2860;54.284;10.158;2023-01-20T02:56:31;0.90;99.90
5675;DHT22;2860;54.284;10.158;2023-01-20T02:59:01;0.90;99.90
5675;DHT22;2860;54.284;10.158;2023-01-20T03:01:35;0.90;99.90
5675;DHT22;2860;54.284;10.158;2023-01-20T03:04:02;0.90;99.90
5675;DHT22;2860;54.284;10.158;2023-01-20T03:06:34;0.90;99.90
5675;DHT22;2860;54.284;10.158;2023-01-20T03:09:06;0.80;99.90
5675;DHT22;2860;54.284;10.158;2023-01-20T03:11:34;0.80;99.90
5675;DHT22;2860;54.284;10.158;2023-01-20T03:14:11;0.80;99.90
5675;DHT22;2860;54.284;10.158;2023-01-20T03:16:38;0.80;99.90
5675;DHT22;2860;54.284;10.158;2023-01-20T03:19:04;0.80;99.90
5675;DHT22;2860;54.284;10.158;2023-01-20T03:21:29;0.80;99.90
5675;DHT22;2860;54.284;10.158;2023-01-20T03:24:00;0.80;99.90
5675;DHT22;2860;54.284;10.158;2023-01-20T03:26:26;0.80;99.90
5675;DHT22;2860;54.284;10.158;2023-01-20T03:28:51;0.90;99.90
5675;DHT22;2860;54.284;10.158;2023-01-20T03:31:29;0.90;99.90
5675;DHT22;2860;54.284;10.158;2023-01-20T03:33:59;0.90;99.90
5675;DHT22;2860;54.284;10.158;2023-01-20T03:36:27;0.90;99.90
5675;DHT22;2860;54.284;10.158;2023-01-20T03:38:53;1.00;99.90
5675;DHT22;2860;54.284;10.158;2023-01-20T03:41:46;1.00;99.90
5675;DHT22;2860;54.284;10.158;2023-01-20T03:44:40;1.00;99.90
5675;DHT22;2860;54.284;10.158;2023-01-20T03:49:53;0.90;99.90
5675;DHT22;2860;54.284;10.158;2023-01-20T03:52:36;0.90;99.90
5675;DHT22;2860;54.284;10.158;2023-01-20T03:55:11;0.90;99.90
5675;DHT22;2860;54.284;10.158;2023-01-20T03:57:42;0.80;99.90
5675;DHT22;2860;54.284;10.158;2023-01-20T04:00:10;0.80;99.90
5675;DHT22;2860;54.284;10.158;2023-01-20T04:02:37;0.80;99.90
5675;DHT22;2860;54.284;10.158;2023-01-20T04:05:04;0.80;99.90
5675;DHT22;2860;54.284;10.158;2023-01-20T04:07:31;0.80;99.90
5675;DHT22;2860;54.284;10.158;2023-01-20T04:10:02;0.90;99.90
5675;DHT22;2860;54.284;10.158;2023-01-20T04:12:29;0.90;99.90
5675;DHT22;2860;54.284;10.158;2023-01-20T04:14:54;0.90;99.90
5675;DHT22;2860;54.284;10.158;2023-01-20T04:17:20;0.80;99.90
5675;DHT22;2860;54.284;10.158;2023-01-20T04:19:45;0.80;99.90
5675;DHT22;2860;54.284;10.158;2023-01-20T04:22:17;0.80;99.90
5675;DHT22;2860;54.284;10.158;2023-01-20T04:25:02;0.80;99.90
5675;DHT22;2860;54.284;10.158;2023-01-20T04:27:30;0.80;99.90
5675;DHT22;2860;54.284;10.158;2023-01-20T04:29:55;0.80;99.90
5675;DHT22;2860;54.284;10.158;2023-01-20T04:32:21;0.80;99.90
5675;DHT22;2860;54.284;10.158;2023-01-20T04:34:49;0.80;99.90
5675;DHT22;2860;54.284;10.158;2023-01-20T04:37:15;0.80;99.90
5675;DHT22;2860;54.284;10.158;2023-01-20T04:39:40;0.80;99.90
5675;DHT22;2860;54.284;10.158;2023-01-20T04:42:06;0.80;99.90
5675;DHT22;2860;54.284;10.158;2023-01-20T04:44:31;0.80;99.90
5675;DHT22;2860;54.284;10.158;2023-01-20T04:46:57;0.80;99.90
5675;DHT22;2860;54.284;10.158;2023-01-20T04:49:23;0.80;99.90
5675;DHT22;2860;54.284;10.158;2023-01-20T04:51:48;0.70;99.90
5675;DHT22;2860;54.284;10.158;2023-01-20T04:54:14;0.70;99.90
5675;DHT22;2860;54.284;10.158;2023-01-20T04:56:39;0.70;99.90
5675;DHT22;2860;54.284;10.158;2023-01-20T04:59:05;0.70;99.90
5675;DHT22;2860;54.284;10.158;2023-01-20T05:01:30;0.70;99.90
5675;DHT22;2860;54.284;10.158;2023-01-20T05:03:56;0.70;99.90
5675;DHT22;2860;54.284;10.158;2023-01-20T05:06:21;0.70;99.90
5675;DHT22;2860;54.284;10.158;2023-01-20T05:08:47;0.70;99.90
5675;DHT22;2860;54.284;10.158;2023-01-20T05:11:12;0.70;99.90
5675;DHT22;2860;54.284;10.158;2023-01-20T05:13:38;0.70;99.90
5675;DHT22;2860;54.284;10.158;2023-01-20T05:16:07;0.80;99.90
5675;DHT22;2860;54.284;10.158;2023-01-20T05:18:33;0.80;99.90
5675;DHT22;2860;54.284;10.158;2023-01-20T05:21:00;0.80;99.90
5675;DHT22;2860;54.284;10.158;2023-01-20T05:23:27;0.80;99.90
5675;DHT22;2860;54.284;10.158;2023-01-20T05:25:52;0.80;99.90
5675;DHT22;2860;54.284;10.158;2023-01-20T05:28:18;0.90;99.90
5675;DHT22;2860;54.284;10.158;2023-01-20T05:30:44;0.80;99.90
5675;DHT22;2860;54.284;10.158;2023-01-20T05:33:10;0.90;99.90
5675;DHT22;2860;54.284;10.158;2023-01-20T05:35:38;0.90;99.90
5675;DHT22;2860;54.284;10.158;2023-01-20T05:38:04;0.90;99.90
5675;DHT22;2860;54.284;10.158;2023-01-20T05:40:29;0.90;99.90
5675;DHT22;2860;54.284;10.158;2023-01-20T05:42:58;0.90;99.90
5675;DHT22;2860;54.284;10.158;2023-01-20T05:45:24;0.90;99.90
5675;DHT22;2860;54.284;10.158;2023-01-20T05:47:59;0.90;99.90
5675;DHT22;2860;54.284;10.158;2023-01-20T05:50:26;0.90;99.90
5675;DHT22;2860;54.284;10.158;2023-01-20T05:52:52;0.90;99.90
5675;DHT22;2860;54.284;10.158;2023-01-20T05:55:18;0.90;99.90
5675;DHT22;2860;54.284;10.158;2023-01-20T05:57:44;0.90;99.90
5675;DHT22;2860;54.284;10.158;2023-01-20T06:00:10;0.80;99.90
5675;DHT22;2860;54.284;10.158;2023-01-20T06:02:37;0.80;99.90
5675;DHT22;2860;54.284;10.158;2023-01-20T06:05:02;0.80;99.90
5675;DHT22;2860;54.284;10.158;2023-01-20T06:07:29;0.80;99.90
5675;DHT22;2860;54.284;10.158;2023-01-20T06:09:55;0.80;99.90
5675;DHT22;2860;54.284;10.158;2023-01-20T06:12:21;0.80;99.90
5675;DHT22;2860;54.284;10.158;2023-01-20T06:14:47;0.80;99.90
5675;DHT22;2860;54.284;10.158;2023-01-20T06:17:12;0.80;99.90
5675;DHT22;2860;54.284;10.158;2023-01-20T06:19:38;0.80;99.90
5675;DHT22;2860;54.284;10.158;2023-01-20T06:22:03;0.70;99.90
5675;DHT22;2860;54.284;10.158;2023-01-20T06:24:29;0.70;99.90
5675;DHT22;2860;54.284;10.158;2023-01-20T06:26:54;0.70;99.90
5675;DHT22;2860;54.284;10.158;2023-01-20T06:29:20;0.80;99.90
5675;DHT22;2860;54.284;10.158;2023-01-20T06:31:46;0.70;99.90
5675;DHT22;2860;54.284;10.158;2023-01-20T06:34:12;0.80;99.90
5675;DHT22;2860;54.284;10.158;2023-01-20T06:36:38;0.80;99.90
5675;DHT22;2860;54.284;10.158;2023-01-20T06:39:03;0.80;99.90
5675;DHT22;2860;54.284;10.158;2023-01-20T06:41:29;0.80;99.90
5675;DHT22;2860;54.284;10.158;2023-01-20T06:43:54;0.70;99.90
5675;DHT22;2860;54.284;10.158;2023-01-20T06:46:20;0.70;99.90
5675;DHT22;2860;54.284;10.158;2023-01-20T06:48:46;0.70;99.90
5675;DHT22;2860;54.284;10.158;2023-01-20T06:51:17;0.70;99.90
5675;DHT22;2860;54.284;10.158;2023-01-20T06:53:43;0.70;99.90
5675;DHT22;2860;54.284;10.158;2023-01-20T06:56:13;0.70;99.90
5675;DHT22;2860;54.284;10.158;2023-01-20T06:58:39;0.60;99.90
5675;DHT22;2860;54.284;10.158;2023-01-20T07:01:14;0.60;99.90
5675;DHT22;2860;54.284;10.158;2023-01-20T07:03:41;0.60;99.90
5675;DHT22;2860;54.284;10.158;2023-01-20T07:06:15;0.60;99.90
5675;DHT22;2860;54.284;10.158;2023-01-20T07:08:44;0.60;99.90
5675;DHT22;2860;54.284;10.158;2023-01-20T07:11:10;0.50;99.90
5675;DHT22;2860;54.284;10.158;2023-01-20T07:13:36;0.50;99.90
5675;DHT22;2860;54.284;10.158;2023-01-20T07:16:01;0.50;99.90
5675;DHT22;2860;54.284;10.158;2023-01-20T07:18:27;0.50;99.90
5675;DHT22;2860;54.284;10.158;2023-01-20T07:20:53;0.40;99.90
5675;DHT22;2860;54.284;10.158;2023-01-20T07:23:19;0.40;99.90
5675;DHT22;2860;54.284;10.158;2023-01-20T07:25:44;0.40;99.90
5675;DHT22;2860;54.284;10.158;2023-01-20T07:28:10;0.40;99.90
5675;DHT22;2860;54.284;10.158;2023-01-20T07:30:35;0.30;99.90
5675;DHT22;2860;54.284;10.158;2023-01-20T07:33:01;0.30;99.90
5675;DHT22;2860;54.284;10.158;2023-01-20T07:35:26;0.30;99.90
5675;DHT22;2860;54.284;10.158;2023-01-20T07:37:52;0.30;99.90
5675;DHT22;2860;54.284;10.158;2023-01-20T07:40:17;0.30;99.90
5675;DHT22;2860;54.284;10.158;2023-01-20T07:42:43;0.30;99.90
5675;DHT22;2860;54.284;10.158;2023-01-20T07:45:09;0.30;99.90
5675;DHT22;2860;54.284;10.158;2023-01-20T07:47:34;0.40;99.90
5675;DHT22;2860;54.284;10.158;2023-01-20T07:50:00;0.40;99.90
5675;DHT22;2860;54.284;10.158;2023-01-20T07:52:26;0.40;99.90
5675;DHT22;2860;54.284;10.158;2023-01-20T07:54:52;0.40;99.90
5675;DHT22;2860;54.284;10.158;2023-01-20T07:57:17;0.40;99.90
5675;DHT22;2860;54.284;10.158;2023-01-20T07:59:42;0.40;99.90
5675;DHT22;2860;54.284;10.158;2023-01-20T08:02:09;0.40;99.90
5675;DHT22;2860;54.284;10.158;2023-01-20T08:04:34;0.40;99.90
5675;DHT22;2860;54.284;10.158;2023-01-20T08:07:00;0.40;99.90
5675;DHT22;2860;54.284;10.158;2023-01-20T08:09:25;0.50;99.90
5675;DHT22;2860;54.284;10.158;2023-01-20T08:11:51;0.50;99.90
5675;DHT22;2860;54.284;10.158;2023-01-20T08:14:16;0.50;99.90
5675;DHT22;2860;54.284;10.158;2023-01-20T08:16:42;0.50;99.90
5675;DHT22;2860;54.284;10.158;2023-01-20T08:19:07;0.50;99.90
5675;DHT22;2860;54.284;10.158;2023-01-20T08:21:33;0.50;99.90
5675;DHT22;2860;54.284;10.158;2023-01-20T08:24:00;0.50;99.90
5675;DHT22;2860;54.284;10.158;2023-01-20T08:26:26;0.50;99.90
5675;DHT22;2860;54.284;10.158;2023-01-20T08:28:54;0.50;99.90
5675;DHT22;2860;54.284;10.158;2023-01-20T08:31:21;0.50;99.90
5675;DHT22;2860;54.284;10.158;2023-01-20T08:33:51;0.50;99.90
5675;DHT22;2860;54.284;10.158;2023-01-20T08:36:19;0.50;99.90
5675;DHT22;2860;54.284;10.158;2023-01-20T08:38:46;0.50;99.90
5675;DHT22;2860;54.284;10.158;2023-01-20T08:41:15;0.50;99.90
5675;DHT22;2860;54.284;10.158;2023-01-20T08:43:41;0.50;99.90
5675;DHT22;2860;54.284;10.158;2023-01-20T08:46:09;0.50;99.90
5675;DHT22;2860;54.284;10.158;2023-01-20T08:48:37;0.50;99.90
5675;DHT22;2860;54.284;10.158;2023-01-20T08:51:05;0.50;99.90
5675;DHT22;2860;54.284;10.158;2023-01-20T08:53:32;0.50;99.90
5675;DHT22;2860;54.284;10.158;2023-01-20T08:55:59;0.50;99.90
5675;DHT22;2860;54.284;10.158;2023-01-20T08:58:25;0.50;99.90
5675;DHT22;2860;54.284;10.158;2023-01-20T09:00:52;0.50;99.90
5675;DHT22;2860;54.284;10.158;2023-01-20T09:03:17;0.50;99.90
5675;DHT22;2860;54.284;10.158;2023-01-20T09:05:43;0.50;99.90
5675;DHT22;2860;54.284;10.158;2023-01-20T09:08:09;0.50;99.90
5675;DHT22;2860;54.284;10.158;2023-01-20T09:10:34;0.50;99.90
5675;DHT22;2860;54.284;10.158;2023-01-20T09:13:00;0.50;99.90
5675;DHT22;2860;54.284;10.158;2023-01-20T09:15:25;0.50;99.90
5675;DHT22;2860;54.284;10.158;2023-01-20T09:17:51;0.50;99.90
5675;DHT22;2860;54.284;10.158;2023-01-20T09:20:16;0.50;99.90
5675;DHT22;2860;54.284;10.158;2023-01-20T09:22:42;0.50;99.90
5675;DHT22;2860;54.284;10.158;2023-01-20T09:25:08;0.50;99.90
5675;DHT22;2860;54.284;10.158;2023-01-20T09:27:34;0.50;99.90
5675;DHT22;2860;54.284;10.158;2023-01-20T09:30:00;0.50;99.90
5675;DHT22;2860;54.284;10.158;2023-01-20T09:32:26;0.50;99.90
5675;DHT22;2860;54.284;10.158;2023-01-20T09:34:51;0.50;99.90
5675;DHT22;2860;54.284;10.158;2023-01-20T09:37:17;0.50;99.90
5675;DHT22;2860;54.284;10.158;2023-01-20T09:40:02;0.50;99.90
5675;DHT22;2860;54.284;10.158;2023-01-20T09:43:15;0.50;99.90
5675;DHT22;2860;54.284;10.158;2023-01-20T09:54:50;0.60;99.90
5675;DHT22;2860;54.284;10.158;2023-01-20T09:57:18;0.70;99.90
5675;DHT22;2860;54.284;10.158;2023-01-20T09:59:54;0.70;99.90
5675;DHT22;2860;54.284;10.158;2023-01-20T10:02:27;0.70;99.90
5675;DHT22;2860;54.284;10.158;2023-01-20T10:04:57;0.80;99.90
5675;DHT22;2860;54.284;10.158;2023-01-20T10:08:03;0.80;99.90
5675;DHT22;2860;54.284;10.158;2023-01-20T10:10:31;0.80;99.90
5675;DHT22;2860;54.284;10.158;2023-01-20T10:13:07;0.90;99.90
5675;DHT22;2860;54.284;10.158;2023-01-20T10:15:36;0.90;99.90
5675;DHT22;2860;54.284;10.158;2023-01-20T10:18:41;0.80;99.90
5675;DHT22;2860;54.284;10.158;2023-01-20T10:21:21;0.80;99.90
5675;DHT22;2860;54.284;10.158;2023-01-20T10:29:08;1.10;99.90
5675;DHT22;2860;54.284;10.158;2023-01-20T10:32:20;1.00;99.90
5675;DHT22;2860;54.284;10.158;2023-01-20T10:34:50;0.90;99.90
5675;DHT22;2860;54.284;10.158;2023-01-20T10:37:18;1.00;99.90
5675;DHT22;2860;54.284;10.158;2023-01-20T10:39:48;1.10;99.90
5675;DHT22;2860;54.284;10.158;2023-01-20T10:42:17;1.20;99.90
5675;DHT22;2860;54.284;10.158;2023-01-20T10:44:43;1.10;99.90
5675;DHT22;2860;54.284;10.158;2023-01-20T10:50:16;1.20;99.90
5675;DHT22;2860;54.284;10.158;2023-01-20T10:55:52;1.30;99.90
5675;DHT22;2860;54.284;10.158;2023-01-20T10:58:27;1.40;99.90
5675;DHT22;2860;54.284;10.158;2023-01-20T11:00:54;1.50;99.90
5675;DHT22;2860;54.284;10.158;2023-01-20T11:03:21;1.50;99.90
5675;DHT22;2860;54.284;10.158;2023-01-20T11:05:48;1.60;99.90
5675;DHT22;2860;54.284;10.158;2023-01-20T11:08:19;1.50;99.90
5675;DHT22;2860;54.284;10.158;2023-01-20T11:10:48;1.40;99.90
5675;DHT22;2860;54.284;10.158;2023-01-20T11:13:14;1.40;99.90
5675;DHT22;2860;54.284;10.158;2023-01-20T11:15:45;1.20;99.90
5675;DHT22;2860;54.284;10.158;2023-01-20T11:23:38;1.20;99.90
5675;DHT22;2860;54.284;10.158;2023-01-20T11:26:07;1.30;99.90
5675;DHT22;2860;54.284;10.158;2023-01-20T11:29:01;1.10;99.90
5675;DHT22;2860;54.284;10.158;2023-01-20T11:31:46;1.10;99.90
5675;DHT22;2860;54.284;10.158;2023-01-20T11:34:31;1.20;99.90
5675;DHT22;2860;54.284;10.158;2023-01-20T11:37:17;1.10;99.90
5675;DHT22;2860;54.284;10.158;2023-01-20T11:45:03;1.00;99.90
5675;DHT22;2860;54.284;10.158;2023-01-20T11:47:32;1.00;99.90
5675;DHT22;2860;54.284;10.158;2023-01-20T11:52:42;1.10;99.90
5675;DHT22;2860;54.284;10.158;2023-01-20T11:55:14;1.20;99.90
5675;DHT22;2860;54.284;10.158;2023-01-20T11:57:57;1.20;99.90
5675;DHT22;2860;54.284;10.158;2023-01-20T12:02:59;1.20;99.90
5675;DHT22;2860;54.284;10.158;2023-01-20T12:05:33;1.30;99.90
5675;DHT22;2860;54.284;10.158;2023-01-20T12:08:03;1.40;99.90
5675;DHT22;2860;54.284;10.158;2023-01-20T12:10:33;1.40;99.90
5675;DHT22;2860;54.284;10.158;2023-01-20T12:13:11;1.40;99.90
5675;DHT22;2860;54.284;10.158;2023-01-20T12:15:41;1.40;99.90
5675;DHT22;2860;54.284;10.158;2023-01-20T12:18:15;1.40;99.90
5675;DHT22;2860;54.284;10.158;2023-01-20T12:20:54;1.40;99.90
5675;DHT22;2860;54.284;10.158;2023-01-20T12:23:31;1.30;99.90
5675;DHT22;2860;54.284;10.158;2023-01-20T12:26:01;1.30;99.90
5675;DHT22;2860;54.284;10.158;2023-01-20T12:31:19;1.30;99.90
5675;DHT22;2860;54.284;10.158;2023-01-20T12:34:11;1.20;99.90
5675;DHT22;2860;54.284;10.158;2023-01-20T12:39:31;1.20;99.90
5675;DHT22;2860;54.284;10.158;2023-01-20T12:55:51;1.30;99.90
5675;DHT22;2860;54.284;10.158;2023-01-20T12:58:43;1.20;99.90
5675;DHT22;2860;54.284;10.158;2023-01-20T13:07:04;1.30;99.90
5675;DHT22;2860;54.284;10.158;2023-01-20T13:12:40;1.20;99.90
5675;DHT22;2860;54.284;10.158;2023-01-20T13:15:18;1.20;99.90
5675;DHT22;2860;54.284;10.158;2023-01-20T13:17:49;1.20;99.90
5675;DHT22;2860;54.284;10.158;2023-01-20T13:20:22;1.20;99.90
5675;DHT22;2860;54.284;10.158;2023-01-20T13:22:49;1.20;99.90
5675;DHT22;2860;54.284;10.158;2023-01-20T13:25:15;1.10;99.90
5675;DHT22;2860;54.284;10.158;2023-01-20T13:27:43;1.10;99.90
5675;DHT22;2860;54.284;10.158;2023-01-20T13:33:03;1.10;99.90
5675;DHT22;2860;54.284;10.158;2023-01-20T13:37:56;1.10;99.90
5675;DHT22;2860;54.284;10.158;2023-01-20T13:43:04;1.10;99.90
5675;DHT22;2860;54.284;10.158;2023-01-20T13:49:19;1.00;99.90
5675;DHT22;2860;54.284;10.158;2023-01-20T13:51:46;1.10;99.90
5675;DHT22;2860;54.284;10.158;2023-01-20T13:56:50;1.10;99.90
5675;DHT22;2860;54.284;10.158;2023-01-20T13:59:16;1.10;99.90
5675;DHT22;2860;54.284;10.158;2023-01-20T14:01:42;1.10;99.90
5675;DHT22;2860;54.284;10.158;2023-01-20T14:04:15;1.10;99.90
5675;DHT22;2860;54.284;10.158;2023-01-20T14:06:49;1.10;99.90
5675;DHT22;2860;54.284;10.158;2023-01-20T14:09:24;1.10;99.90
5675;DHT22;2860;54.284;10.158;2023-01-20T14:11:52;1.00;99.90
5675;DHT22;2860;54.284;10.158;2023-01-20T14:14:25;1.00;99.90
5675;DHT22;2860;54.284;10.158;2023-01-20T14:16:51;1.00;99.90
5675;DHT22;2860;54.284;10.158;2023-01-20T14:19:27;1.00;99.90
5675;DHT22;2860;54.284;10.158;2023-01-20T14:21:57;1.00;99.90
5675;DHT22;2860;54.284;10.158;2023-01-20T14:24:34;1.10;99.90
5675;DHT22;2860;54.284;10.158;2023-01-20T14:27:18;1.10;99.90
5675;DHT22;2860;54.284;10.158;2023-01-20T14:29:46;1.10;99.90
5675;DHT22;2860;54.284;10.158;2023-01-20T14:32:19;1.10;99.90
5675;DHT22;2860;54.284;10.158;2023-01-20T14:34:46;1.00;99.90
5675;DHT22;2860;54.284;10.158;2023-01-20T14:37:32;1.00;99.90
5675;DHT22;2860;54.284;10.158;2023-01-20T14:40:00;1.00;99.90
5675;DHT22;2860;54.284;10.158;2023-01-20T14:42:29;1.00;99.90
5675;DHT22;2860;54.284;10.158;2023-01-20T14:44:56;1.00;99.90
5675;DHT22;2860;54.284;10.158;2023-01-20T14:47:23;1.00;99.90
5675;DHT22;2860;54.284;10.158;2023-01-20T14:49:51;1.00;99.90
5675;DHT22;2860;54.284;10.158;2023-01-20T14:52:23;1.00;99.90
5675;DHT22;2860;54.284;10.158;2023-01-20T14:54:50;1.00;99.90
5675;DHT22;2860;54.284;10.158;2023-01-20T14:57:33;1.00;99.90
5675;DHT22;2860;54.284;10.158;2023-01-20T15:00:21;1.00;99.90
5675;DHT22;2860;54.284;10.158;2023-01-20T15:03:06;1.00;99.90
5675;DHT22;2860;54.284;10.158;2023-01-20T15:05:36;1.00;99.90
5675;DHT22;2860;54.284;10.158;2023-01-20T15:08:04;1.00;99.90
5675;DHT22;2860;54.284;10.158;2023-01-20T15:10:30;1.00;99.90
5675;DHT22;2860;54.284;10.158;2023-01-20T15:12:56;1.00;99.90
5675;DHT22;2860;54.284;10.158;2023-01-20T15:20:51;1.00;99.90
5675;DHT22;2860;54.284;10.158;2023-01-20T15:23:21;1.00;99.90
5675;DHT22;2860;54.284;10.158;2023-01-20T15:25:50;1.00;99.90
5675;DHT22;2860;54.284;10.158;2023-01-20T15:28:27;1.00;99.90
5675;DHT22;2860;54.284;10.158;2023-01-20T15:30:56;0.90;99.90
5675;DHT22;2860;54.284;10.158;2023-01-20T15:33:22;0.90;99.90
5675;DHT22;2860;54.284;10.158;2023-01-20T15:35:51;1.00;99.90
5675;DHT22;2860;54.284;10.158;2023-01-20T15:38:17;1.00;99.90
5675;DHT22;2860;54.284;10.158;2023-01-20T15:40:43;1.00;99.90
5675;DHT22;2860;54.284;10.158;2023-01-20T15:43:14;1.00;99.90
5675;DHT22;2860;54.284;10.158;2023-01-20T15:45:39;1.00;99.90
5675;DHT22;2860;54.284;10.158;2023-01-20T15:48:19;0.90;99.90
5675;DHT22;2860;54.284;10.158;2023-01-20T15:50:46;0.90;99.90
5675;DHT22;2860;54.284;10.158;2023-01-20T15:53:12;0.90;99.90
5675;DHT22;2860;54.284;10.158;2023-01-20T15:55:44;0.90;99.90
5675;DHT22;2860;54.284;10.158;2023-01-20T15:58:28;0.90;99.90
5675;DHT22;2860;54.284;10.158;2023-01-20T16:00:55;0.90;99.90
5675;DHT22;2860;54.284;10.158;2023-01-20T16:03:22;0.90;99.90
5675;DHT22;2860;54.284;10.158;2023-01-20T16:05:50;0.90;99.90
5675;DHT22;2860;54.284;10.158;2023-01-20T16:08:24;0.90;99.90
5675;DHT22;2860;54.284;10.158;2023-01-20T16:10:53;1.00;99.90
5675;DHT22;2860;54.284;10.158;2023-01-20T16:13:19;0.90;99.90
5675;DHT22;2860;54.284;10.158;2023-01-20T16:15:44;0.90;99.90
5675;DHT22;2860;54.284;10.158;2023-01-20T16:18:15;0.90;99.90
5675;DHT22;2860;54.284;10.158;2023-01-20T16:20:43;0.90;99.90
5675;DHT22;2860;54.284;10.158;2023-01-20T16:23:09;0.90;99.90
5675;DHT22;2860;54.284;10.158;2023-01-20T16:25:35;0.90;99.90
5675;DHT22;2860;54.284;10.158;2023-01-20T16:28:00;0.90;99.90
5675;DHT22;2860;54.284;10.158;2023-01-20T16:30:26;0.90;99.90
5675;DHT22;2860;54.284;10.158;2023-01-20T16:32:51;0.90;99.90
5675;DHT22;2860;54.284;10.158;2023-01-20T16:35:18;0.90;99.90
5675;DHT22;2860;54.284;10.158;2023-01-20T16:37:46;1.00;99.90
5675;DHT22;2860;54.284;10.158;2023-01-20T16:42:42;0.90;99.90
5675;DHT22;2860;54.284;10.158;2023-01-20T16:45:20;1.00;99.90
5675;DHT22;2860;54.284;10.158;2023-01-20T16:47:46;0.90;99.90
5675;DHT22;2860;54.284;10.158;2023-01-20T16:50:12;0.90;99.90
5675;DHT22;2860;54.284;10.158;2023-01-20T16:52:38;0.90;99.90
5675;DHT22;2860;54.284;10.158;2023-01-20T16:55:03;1.00;99.90
5675;DHT22;2860;54.284;10.158;2023-01-20T16:57:29;1.00;99.90
5675;DHT22;2860;54.284;10.158;2023-01-20T16:59:55;1.00;99.90
5675;DHT22;2860;54.284;10.158;2023-01-20T17:02:21;1.00;99.90
5675;DHT22;2860;54.284;10.158;2023-01-20T17:04:46;1.00;99.90
5675;DHT22;2860;54.284;10.158;2023-01-20T17:07:12;1.00;99.90
5675;DHT22;2860;54.284;10.158;2023-01-20T17:09:37;1.00;99.90
5675;DHT22;2860;54.284;10.158;2023-01-20T17:12:03;1.00;99.90
5675;DHT22;2860;54.284;10.158;2023-01-20T17:14:29;1.00;99.90
5675;DHT22;2860;54.284;10.158;2023-01-20T17:16:54;1.00;99.90
5675;DHT22;2860;54.284;10.158;2023-01-20T17:19:22;0.90;99.90
5675;DHT22;2860;54.284;10.158;2023-01-20T17:21:47;0.90;99.90
5675;DHT22;2860;54.284;10.158;2023-01-20T17:24:14;0.90;99.90
5675;DHT22;2860;54.284;10.158;2023-01-20T17:26:39;0.90;99.90
5675;DHT22;2860;54.284;10.158;2023-01-20T17:29:06;1.00;99.90
5675;DHT22;2860;54.284;10.158;2023-01-20T17:31:33;0.90;99.90
5675;DHT22;2860;54.284;10.158;2023-01-20T17:34:04;1.00;99.90
5675;DHT22;2860;54.284;10.158;2023-01-20T17:36:30;1.00;99.90
5675;DHT22;2860;54.284;10.158;2023-01-20T17:38:59;1.00;99.90
5675;DHT22;2860;54.284;10.158;2023-01-20T17:41:25;1.00;99.90
5675;DHT22;2860;54.284;10.158;2023-01-20T17:43:51;1.00;99.90
5675;DHT22;2860;54.284;10.158;2023-01-20T17:46:25;1.00;99.90
5675;DHT22;2860;54.284;10.158;2023-01-20T17:48:58;1.00;99.90
5675;DHT22;2860;54.284;10.158;2023-01-20T17:51:25;1.00;99.90
5675;DHT22;2860;54.284;10.158;2023-01-20T17:53:51;1.00;99.90
5675;DHT22;2860;54.284;10.158;2023-01-20T17:56:19;1.00;99.90
5675;DHT22;2860;54.284;10.158;2023-01-20T17:58:45;1.00;99.90
5675;DHT22;2860;54.284;10.158;2023-01-20T18:01:16;1.00;99.90